<?xml version="1.0" encoding="UTF-8" standalone="no" ?>
<gpx xmlns="http://www.topografix.com/GPX/1/1" xmlns:xsi="http://www.w3.org/2001/XMLSchema-instance" xsi:schemaLocation="http://www.topografix.com/GPX/1/1 http://www.topografix.com/GPX/1/1/gpx.xsd" version="1.1" creator="VisuGPX - https://www.visugpx.com">
  <metadata>
    <name>boucles beaumont</name>
    <desc><![CDATA[boucles beaumont du périgord]]></desc>
  </metadata>
  <trk>
    <name><![CDATA[BBmt67]]></name>
    <trkseg>
      <trkpt lat="44.8102" lon="0.83248">
        <ele>198</ele>
        <time>2009-01-26T10:42:11Z</time>
      </trkpt>
      <trkpt lat="44.81005" lon="0.83233">
        <ele>187</ele>
        <time>2009-01-26T10:42:39Z</time>
      </trkpt>
      <trkpt lat="44.8099" lon="0.83215">
        <ele>182</ele>
        <time>2009-01-26T10:43:03Z</time>
      </trkpt>
      <trkpt lat="44.80975" lon="0.83195">
        <ele>186</ele>
        <time>2009-01-26T10:43:16Z</time>
      </trkpt>
      <trkpt lat="44.8096" lon="0.83175">
        <ele>175</ele>
        <time>2009-01-26T10:43:39Z</time>
      </trkpt>
      <trkpt lat="44.80943" lon="0.83163">
        <ele>170</ele>
        <time>2009-01-26T10:43:56Z</time>
      </trkpt>
      <trkpt lat="44.80923" lon="0.8316">
        <ele>165</ele>
        <time>2009-01-26T10:44:19Z</time>
      </trkpt>
      <trkpt lat="44.80928" lon="0.83133">
        <ele>155</ele>
        <time>2009-01-26T10:44:43Z</time>
      </trkpt>
      <trkpt lat="44.80925" lon="0.83105">
        <ele>152</ele>
        <time>2009-01-26T10:45:07Z</time>
      </trkpt>
      <trkpt lat="44.8093" lon="0.8308">
        <ele>150</ele>
        <time>2009-01-26T10:45:23Z</time>
      </trkpt>
      <trkpt lat="44.80933" lon="0.83053">
        <ele>151</ele>
        <time>2009-01-26T10:45:38Z</time>
      </trkpt>
      <trkpt lat="44.80933" lon="0.83025">
        <ele>147</ele>
        <time>2009-01-26T10:45:56Z</time>
      </trkpt>
      <trkpt lat="44.80935" lon="0.82998">
        <ele>148</ele>
        <time>2009-01-26T10:46:11Z</time>
      </trkpt>
      <trkpt lat="44.80932" lon="0.82918">
        <ele>151</ele>
        <time>2009-06-18T16:43:36Z</time>
      </trkpt>
      <trkpt lat="44.80927" lon="0.82844">
        <ele>148</ele>
        <time>2009-06-18T16:43:36Z</time>
      </trkpt>
      <trkpt lat="44.80914" lon="0.82785">
        <ele>145</ele>
        <time>2009-06-18T16:43:36Z</time>
      </trkpt>
      <trkpt lat="44.80883" lon="0.82719">
        <ele>145</ele>
        <time>2009-06-18T16:43:36Z</time>
      </trkpt>
      <trkpt lat="44.80879" lon="0.82677">
        <ele>147</ele>
        <time>2009-06-18T16:43:36Z</time>
      </trkpt>
      <trkpt lat="44.80904" lon="0.82634">
        <ele>147</ele>
        <time>2009-06-18T16:43:36Z</time>
      </trkpt>
      <trkpt lat="44.80925" lon="0.82603">
        <ele>147</ele>
        <time>2009-06-18T16:43:36Z</time>
      </trkpt>
      <trkpt lat="44.80954" lon="0.82556">
        <ele>145</ele>
        <time>2009-06-18T16:43:36Z</time>
      </trkpt>
      <trkpt lat="44.80974" lon="0.82502">
        <ele>147</ele>
        <time>2009-01-26T10:46:29Z</time>
      </trkpt>
    </trkseg>
  </trk>
</gpx>